Time;durP1;ratioP1;P1;durP2;ratioP2;P2;SDS_P1;SDS_P2;PMS_P1;PMS_P2;Temp;Humidity;BMP_temperature;BMP_pressure;BME280_temperature;BME280_humidity;BME280_pressure;Samples;Min_cycle;Max_cycle;Signal;HPM_P1;HPM_P2
2023/04/18 00:00:57;;;;;;;13.27;7.32;;;;;;;;;;5014350;28;20512;-81
2023/04/18 00:03:22;;;;;;;14.20;7.78;;;;;;;;;;4999082;28;20481;-81
2023/04/18 00:05:48;;;;;;;13.00;8.13;;;;;;;;;;4997135;28;20095;-81
2023/04/18 00:08:14;;;;;;;13.77;7.57;;;;;;;;;;5013481;28;20048;-82
2023/04/18 00:10:40;;;;;;;14.38;7.53;;;;;;;;;;4980009;28;20124;-81
2023/04/18 00:13:06;;;;;;;16.70;8.55;;;;;;;;;;5000008;28;20402;-81
2023/04/18 00:15:34;;;;;;;14.85;8.23;;;;;;;;;;5001414;28;21829;-81
2023/04/18 00:18:04;;;;;;;14.98;8.13;;;;;;;;;;5014539;28;20378;-82
2023/04/18 00:20:30;;;;;;;15.07;8.20;;;;;;;;;;4995094;28;20040;-82
2023/04/18 00:22:56;;;;;;;14.07;7.38;;;;;;;;;;4984978;28;20033;-82
2023/04/18 00:25:22;;;;;;;16.65;9.23;;;;;;;;;;4991741;28;20095;-81
2023/04/18 00:27:47;;;;;;;16.58;8.27;;;;;;;;;;4994660;28;20043;-80
2023/04/18 00:30:13;;;;;;;14.50;7.85;;;;;;;;;;4992298;28;20091;-81
2023/04/18 00:32:38;;;;;;;14.65;8.18;;;;;;;;;;4992572;28;20386;-81
2023/04/18 00:35:04;;;;;;;15.18;7.97;;;;;;;;;;4996350;28;20049;-81
2023/04/18 00:37:30;;;;;;;14.40;7.50;;;;;;;;;;5001807;28;20123;-81
2023/04/18 00:39:55;;;;;;;12.55;7.25;;;;;;;;;;4998978;28;20134;-82
2023/04/18 00:42:21;;;;;;;19.50;8.15;;;;;;;;;;4992596;28;20120;-81
2023/04/18 00:44:46;;;;;;;17.48;8.32;;;;;;;;;;4975889;28;20037;-81
2023/04/18 00:47:13;;;;;;;13.18;7.47;;;;;;;;;;4986673;28;20038;-81
2023/04/18 00:49:39;;;;;;;16.50;8.45;;;;;;;;;;4992698;28;20121;-81
2023/04/18 00:52:04;;;;;;;12.25;7.30;;;;;;;;;;4993775;28;20121;-81
2023/04/18 00:54:30;;;;;;;16.92;7.63;;;;;;;;;;4992729;28;20068;-81
2023/04/18 00:56:55;;;;;;;13.73;7.90;;;;;;;;;;4978112;28;20494;-81
2023/04/18 00:59:21;;;;;;;14.35;7.60;;;;;;;;;;4995060;28;20035;-81
2023/04/18 01:01:46;;;;;;;15.38;7.85;;;;;;;;;;4996371;28;20585;-81
2023/04/18 01:04:12;;;;;;;14.35;7.45;;;;;;;;;;4992654;28;20037;-81
2023/04/18 01:06:37;;;;;;;14.85;7.55;;;;;;;;;;4994978;28;20069;-80
2023/04/18 01:09:04;;;;;;;14.63;8.07;;;;;;;;;;4992613;28;20133;-82
2023/04/18 01:11:30;;;;;;;17.17;8.67;;;;;;;;;;4981035;28;20050;-81
2023/04/18 01:14:02;;;;;;;14.38;7.80;;;;;;;;;;4993931;28;20332;-81
2023/04/18 01:16:28;;;;;;;13.85;7.25;;;;;;;;;;4993344;28;20140;-81
2023/04/18 01:18:54;;;;;;;15.40;8.80;;;;;;;;;;4986636;28;20176;-81
2023/04/18 01:21:20;;;;;;;14.02;8.05;;;;;;;;;;4996582;28;20121;-82
2023/04/18 01:23:47;;;;;;;17.35;8.57;;;;;;;;;;4993397;28;20045;-81
2023/04/18 01:26:13;;;;;;;12.85;7.40;;;;;;;;;;4992729;28;20039;-81
2023/04/18 01:28:38;;;;;;;15.00;7.60;;;;;;;;;;5000933;28;20073;-81
2023/04/18 01:31:04;;;;;;;17.63;8.55;;;;;;;;;;4992001;28;20417;-81
2023/04/18 01:33:29;;;;;;;14.05;7.53;;;;;;;;;;5002293;28;20045;-81
2023/04/18 01:35:55;;;;;;;14.85;8.38;;;;;;;;;;4993213;28;20044;-80
2023/04/18 01:38:20;;;;;;;14.85;7.90;;;;;;;;;;4993113;28;20042;-81
2023/04/18 01:40:46;;;;;;;16.98;8.30;;;;;;;;;;4994191;28;20037;-80
2023/04/18 01:43:11;;;;;;;15.73;8.05;;;;;;;;;;4993998;28;20113;-81
2023/04/18 01:45:37;;;;;;;15.55;8.32;;;;;;;;;;4992732;28;20041;-80
2023/04/18 01:48:02;;;;;;;16.90;8.65;;;;;;;;;;4993855;28;20486;-81
2023/04/18 01:50:27;;;;;;;14.77;7.70;;;;;;;;;;4994418;28;20405;-80
2023/04/18 01:52:53;;;;;;;12.80;7.28;;;;;;;;;;4992440;28;20035;-81
2023/04/18 01:55:19;;;;;;;14.32;7.80;;;;;;;;;;4990484;28;20394;-81
2023/04/18 01:57:44;;;;;;;14.93;7.43;;;;;;;;;;4991917;28;20463;-81
2023/04/18 02:00:10;;;;;;;17.00;8.30;;;;;;;;;;4992324;28;20042;-81
2023/04/18 02:02:35;;;;;;;13.65;8.10;;;;;;;;;;4989148;28;20045;-81
2023/04/18 02:05:01;;;;;;;15.57;8.65;;;;;;;;;;4991006;28;20075;-81
2023/04/18 02:07:26;;;;;;;14.65;7.78;;;;;;;;;;4992604;28;20117;-81
2023/04/18 02:09:52;;;;;;;19.25;9.23;;;;;;;;;;4992197;28;20050;-81
2023/04/18 02:12:17;;;;;;;13.98;8.07;;;;;;;;;;4992593;28;20038;-81
2023/04/18 02:14:42;;;;;;;14.43;7.93;;;;;;;;;;4991855;28;20434;-81
2023/04/18 02:17:08;;;;;;;15.07;8.35;;;;;;;;;;4991989;28;20038;-81
2023/04/18 02:19:33;;;;;;;14.10;7.70;;;;;;;;;;4984873;28;20048;-83
2023/04/18 02:21:59;;;;;;;16.45;8.65;;;;;;;;;;4983824;28;20406;-83
2023/04/18 02:24:24;;;;;;;16.13;8.23;;;;;;;;;;4993325;28;20065;-82
2023/04/18 02:26:49;;;;;;;15.43;7.97;;;;;;;;;;4990801;28;20567;-83
2023/04/18 02:29:15;;;;;;;16.00;8.50;;;;;;;;;;4990404;28;20041;-82
2023/04/18 02:31:40;;;;;;;14.75;7.85;;;;;;;;;;4989823;28;20398;-83
2023/04/18 02:34:06;;;;;;;14.50;8.05;;;;;;;;;;4993349;28;20826;-83
2023/04/18 02:36:32;;;;;;;15.60;8.07;;;;;;;;;;4990421;28;20049;-83
2023/04/18 02:38:57;;;;;;;16.15;7.93;;;;;;;;;;4995727;28;20490;-83
2023/04/18 02:41:23;;;;;;;14.75;7.53;;;;;;;;;;4993716;28;20540;-82
2023/04/18 02:43:48;;;;;;;15.48;8.00;;;;;;;;;;4990763;28;20042;-81
2023/04/18 02:46:13;;;;;;;16.95;8.95;;;;;;;;;;4993851;28;20434;-81
2023/04/18 02:48:39;;;;;;;14.80;8.10;;;;;;;;;;4990246;28;20046;-81
2023/04/18 02:51:05;;;;;;;15.82;8.27;;;;;;;;;;4994364;28;20089;-81
2023/04/18 02:53:31;;;;;;;13.07;7.72;;;;;;;;;;4991896;28;20084;-81
2023/04/18 02:55:57;;;;;;;15.52;8.60;;;;;;;;;;4990732;28;20504;-81
2023/04/18 02:58:22;;;;;;;16.27;8.43;;;;;;;;;;4991840;28;20220;-81
2023/04/18 03:00:51;;;;;;;17.05;8.93;;;;;;;;;;4978205;28;20041;-80
2023/04/18 03:03:16;;;;;;;13.98;7.70;;;;;;;;;;4981900;28;20132;-81
2023/04/18 03:05:42;;;;;;;18.08;9.20;;;;;;;;;;4984023;28;20501;-81
2023/04/18 03:08:07;;;;;;;14.18;7.95;;;;;;;;;;4994116;28;20503;-81
2023/04/18 03:10:33;;;;;;;15.15;7.82;;;;;;;;;;4997234;28;20069;-81
2023/04/18 03:12:58;;;;;;;13.63;7.30;;;;;;;;;;4978975;28;20537;-80
2023/04/18 03:15:24;;;;;;;13.70;7.70;;;;;;;;;;4979732;28;20034;-81
2023/04/18 03:17:50;;;;;;;14.45;7.68;;;;;;;;;;4993363;28;20034;-80
2023/04/18 03:20:16;;;;;;;17.38;8.63;;;;;;;;;;4998962;28;20046;-80
2023/04/18 03:22:41;;;;;;;13.13;8.13;;;;;;;;;;4993119;28;20026;-81
2023/04/18 03:25:07;;;;;;;13.90;7.78;;;;;;;;;;4995062;28;20053;-81
2023/04/18 03:27:32;;;;;;;14.18;7.63;;;;;;;;;;4991037;28;20267;-81
2023/04/18 03:29:58;;;;;;;14.57;7.82;;;;;;;;;;4980179;28;20041;-81
2023/04/18 03:32:23;;;;;;;12.85;7.60;;;;;;;;;;4992539;28;20136;-82
2023/04/18 03:34:50;;;;;;;14.73;7.95;;;;;;;;;;4991789;28;20402;-82
2023/04/18 03:37:15;;;;;;;13.98;7.45;;;;;;;;;;4990486;28;20030;-82
2023/04/18 03:39:43;;;;;;;14.02;7.88;;;;;;;;;;4991035;28;20045;-82
2023/04/18 03:42:08;;;;;;;13.68;7.07;;;;;;;;;;4992958;28;20034;-82
2023/04/18 03:44:34;;;;;;;14.65;7.82;;;;;;;;;;4990206;28;20042;-82
2023/04/18 03:46:59;;;;;;;13.68;7.65;;;;;;;;;;4988619;28;20041;-81
2023/04/18 03:49:25;;;;;;;15.52;7.47;;;;;;;;;;4990861;28;20046;-82
2023/04/18 03:51:50;;;;;;;13.23;7.72;;;;;;;;;;4990214;28;20042;-81
2023/04/18 03:54:16;;;;;;;14.02;7.60;;;;;;;;;;4992677;28;20045;-82
2023/04/18 03:56:42;;;;;;;13.52;7.25;;;;;;;;;;4989248;28;20068;-81
2023/04/18 03:59:07;;;;;;;15.45;7.55;;;;;;;;;;4990208;28;20048;-81
2023/04/18 04:01:33;;;;;;;13.07;7.18;;;;;;;;;;4982769;28;20052;-81
2023/04/18 04:03:58;;;;;;;13.40;7.75;;;;;;;;;;4990937;28;20041;-81
2023/04/18 04:06:24;;;;;;;13.38;6.78;;;;;;;;;;4980956;28;20061;-81
2023/04/18 04:08:50;;;;;;;16.75;7.38;;;;;;;;;;4993137;28;20403;-82
2023/04/18 04:11:16;;;;;;;13.75;6.97;;;;;;;;;;4992768;28;20049;-81
2023/04/18 04:13:41;;;;;;;13.40;7.20;;;;;;;;;;4994025;28;20892;-82
2023/04/18 04:16:07;;;;;;;15.15;7.53;;;;;;;;;;4974982;28;20041;-82
2023/04/18 04:18:32;;;;;;;14.20;7.40;;;;;;;;;;4977673;28;20107;-81
2023/04/18 04:20:58;;;;;;;12.95;6.95;;;;;;;;;;4967595;28;20068;-82
2023/04/18 04:23:24;;;;;;;14.27;7.93;;;;;;;;;;4978480;28;20046;-82
2023/04/18 04:25:51;;;;;;;14.32;7.15;;;;;;;;;;4964263;28;20041;-82
2023/04/18 04:28:18;;;;;;;14.98;7.25;;;;;;;;;;4993424;28;20108;-81
2023/04/18 04:30:43;;;;;;;13.82;7.13;;;;;;;;;;5008317;28;20042;-81
2023/04/18 04:33:08;;;;;;;12.55;6.97;;;;;;;;;;4993195;28;20513;-81
2023/04/18 04:35:35;;;;;;;14.32;7.10;;;;;;;;;;4999798;28;20030;-81
2023/04/18 04:38:01;;;;;;;13.00;7.00;;;;;;;;;;4994158;28;20034;-81
2023/04/18 04:40:26;;;;;;;14.73;8.20;;;;;;;;;;4993590;28;20048;-81
2023/04/18 04:42:55;;;;;;;13.77;7.30;;;;;;;;;;4995595;28;20081;-82
2023/04/18 04:45:21;;;;;;;14.10;7.78;;;;;;;;;;4984368;28;20113;-82
2023/04/18 04:47:46;;;;;;;12.95;7.07;;;;;;;;;;4997695;28;20042;-82
2023/04/18 04:50:14;;;;;;;15.38;7.43;;;;;;;;;;4979964;28;20030;-83
2023/04/18 04:52:41;;;;;;;11.80;7.18;;;;;;;;;;4996555;28;20044;-82
2023/04/18 04:55:07;;;;;;;12.57;7.38;;;;;;;;;;4985959;28;20040;-82
2023/04/18 04:57:32;;;;;;;14.35;7.68;;;;;;;;;;4983266;28;20030;-82
2023/04/18 04:59:57;;;;;;;13.07;7.72;;;;;;;;;;4995337;28;20045;-82
2023/04/18 05:02:23;;;;;;;13.52;7.80;;;;;;;;;;4990897;28;20069;-82
2023/04/18 05:04:48;;;;;;;14.07;7.53;;;;;;;;;;4983732;28;20040;-81
2023/04/18 05:07:14;;;;;;;14.68;7.28;;;;;;;;;;4992287;28;20042;-82
2023/04/18 05:09:40;;;;;;;13.13;7.72;;;;;;;;;;4992664;28;20112;-82
2023/04/18 05:12:05;;;;;;;12.63;7.65;;;;;;;;;;4991849;28;20042;-82
2023/04/18 05:14:31;;;;;;;13.88;7.65;;;;;;;;;;4994023;28;20042;-82
2023/04/18 05:16:56;;;;;;;15.90;8.02;;;;;;;;;;4991850;28;20534;-82
2023/04/18 05:19:22;;;;;;;15.75;8.20;;;;;;;;;;4992476;28;20169;-83
2023/04/18 05:21:47;;;;;;;16.42;8.73;;;;;;;;;;4993645;28;20117;-82
2023/04/18 05:24:12;;;;;;;14.15;7.78;;;;;;;;;;4992507;28;20611;-83
2023/04/18 05:26:38;;;;;;;16.17;8.02;;;;;;;;;;4993023;28;20046;-82
2023/04/18 05:29:04;;;;;;;13.98;7.72;;;;;;;;;;4993037;28;20046;-82
2023/04/18 05:31:29;;;;;;;12.40;7.57;;;;;;;;;;4991554;28;20087;-82
2023/04/18 05:33:55;;;;;;;14.63;7.93;;;;;;;;;;4985508;28;20046;-81
2023/04/18 05:36:21;;;;;;;13.27;7.38;;;;;;;;;;4991350;28;20054;-80
2023/04/18 05:38:46;;;;;;;13.35;7.47;;;;;;;;;;4993246;28;20042;-80
2023/04/18 05:41:11;;;;;;;13.45;8.27;;;;;;;;;;4993157;28;20034;-80
2023/04/18 05:43:37;;;;;;;12.55;7.75;;;;;;;;;;4979367;28;20498;-80
2023/04/18 05:46:02;;;;;;;14.95;8.65;;;;;;;;;;4993550;28;20045;-81
2023/04/18 05:48:28;;;;;;;13.65;7.68;;;;;;;;;;4990922;28;20043;-80
2023/04/18 05:50:53;;;;;;;13.07;7.63;;;;;;;;;;4991947;28;20046;-80
2023/04/18 05:53:19;;;;;;;13.02;7.40;;;;;;;;;;4966776;28;20039;-79
2023/04/18 05:55:45;;;;;;;13.82;7.78;;;;;;;;;;4992747;28;20034;-80
2023/04/18 05:58:11;;;;;;;14.67;7.67;;;;;;;;;;4993817;28;20038;-81
2023/04/18 06:00:36;;;;;;;11.82;7.13;;;;;;;;;;5000360;28;21273;-82
2023/04/18 06:03:02;;;;;;;13.35;7.00;;;;;;;;;;4983919;28;20390;-82
2023/04/18 06:05:27;;;;;;;12.40;6.68;;;;;;;;;;4991673;28;20077;-81
2023/04/18 06:07:53;;;;;;;14.07;7.00;;;;;;;;;;4992078;28;20062;-80
2023/04/18 06:10:18;;;;;;;11.98;7.13;;;;;;;;;;4988454;28;20045;-81
2023/04/18 06:12:43;;;;;;;11.75;6.47;;;;;;;;;;4992707;28;20030;-81
2023/04/18 06:15:10;;;;;;;13.20;7.28;;;;;;;;;;4991252;28;20048;-81
2023/04/18 06:17:35;;;;;;;13.98;7.15;;;;;;;;;;4983706;28;20053;-80
2023/04/18 06:20:01;;;;;;;13.23;7.32;;;;;;;;;;4995948;28;20410;-81
2023/04/18 06:22:26;;;;;;;11.82;6.65;;;;;;;;;;4998733;28;20045;-81
2023/04/18 06:24:54;;;;;;;13.32;7.38;;;;;;;;;;4974656;28;20042;-81
2023/04/18 06:27:19;;;;;;;;;;;;;;;;;;4975125;28;20077;-81
2023/04/18 06:29:44;;;;;;;11.07;6.10;;;;;;;;;;4993575;28;19923;-80
2023/04/18 06:32:10;;;;;;;12.15;6.85;;;;;;;;;;4973948;28;20125;-81
2023/04/18 06:34:37;;;;;;;12.50;7.00;;;;;;;;;;4984327;28;20052;-81
2023/04/18 06:37:03;;;;;;;12.27;7.68;;;;;;;;;;4991200;28;20386;-82
2023/04/18 06:39:28;;;;;;;10.50;6.00;;;;;;;;;;4990836;28;20041;-80
2023/04/18 06:41:55;;;;;;;11.10;6.78;;;;;;;;;;4982116;28;20053;-81
2023/04/18 06:44:21;;;;;;;14.00;7.10;;;;;;;;;;4994895;28;20096;-81
2023/04/18 06:46:46;;;;;;;12.32;6.95;;;;;;;;;;4993922;28;20038;-80
2023/04/18 06:49:11;;;;;;;13.25;7.35;;;;;;;;;;4992816;28;20040;-80
2023/04/18 06:51:37;;;;;;;12.23;7.05;;;;;;;;;;4991327;28;20046;-80
2023/04/18 06:54:02;;;;;;;13.07;6.78;;;;;;;;;;4991842;28;20536;-81
2023/04/18 06:56:28;;;;;;;12.35;6.35;;;;;;;;;;4989894;28;20439;-80
2023/04/18 06:58:54;;;;;;;12.73;6.82;;;;;;;;;;4993581;28;20038;-81
2023/04/18 07:01:19;;;;;;;12.32;6.95;;;;;;;;;;4972761;28;20628;-80
2023/04/18 07:03:45;;;;;;;13.45;6.60;;;;;;;;;;4992070;28;20030;-81
2023/04/18 07:06:10;;;;;;;10.20;6.40;;;;;;;;;;4989289;28;20041;-81
2023/04/18 07:08:36;;;;;;;10.88;6.88;;;;;;;;;;4994628;28;20057;-81
2023/04/18 07:11:01;;;;;;;10.48;6.22;;;;;;;;;;4990340;28;20509;-80
2023/04/18 07:13:27;;;;;;;12.35;6.78;;;;;;;;;;4990425;28;20650;-80
2023/04/18 07:15:52;;;;;;;12.80;6.68;;;;;;;;;;4992195;28;20058;-80
2023/04/18 07:18:17;;;;;;;11.50;6.55;;;;;;;;;;4998498;28;20045;-81
2023/04/18 07:20:43;;;;;;;10.25;6.30;;;;;;;;;;4990645;28;20038;-80
2023/04/18 07:23:11;;;;;;;11.80;6.38;;;;;;;;;;4991879;28;20422;-81
2023/04/18 07:25:37;;;;;;;11.13;6.47;;;;;;;;;;4982778;28;20042;-80
2023/04/18 07:28:03;;;;;;;14.60;6.47;;;;;;;;;;4990368;28;20085;-80
2023/04/18 07:30:28;;;;;;;10.32;5.88;;;;;;;;;;4988617;28;20037;-81
2023/04/18 07:32:54;;;;;;;10.35;6.38;;;;;;;;;;4994492;28;20045;-80
2023/04/18 07:35:19;;;;;;;11.05;5.80;;;;;;;;;;4988354;28;20038;-80
2023/04/18 07:37:45;;;;;;;12.07;6.50;;;;;;;;;;4990481;28;20031;-79
2023/04/18 07:40:10;;;;;;;11.35;6.40;;;;;;;;;;4989449;28;20125;-81
2023/04/18 07:42:36;;;;;;;12.05;6.57;;;;;;;;;;4990056;28;20038;-82
2023/04/18 07:45:02;;;;;;;9.95;5.85;;;;;;;;;;4992693;28;20034;-82
2023/04/18 07:47:28;;;;;;;14.38;6.47;;;;;;;;;;4975401;28;20076;-81
2023/04/18 07:49:53;;;;;;;11.43;6.28;;;;;;;;;;4988892;28;20042;-81
2023/04/18 07:52:19;;;;;;;9.85;5.80;;;;;;;;;;4989615;28;20042;-82
2023/04/18 07:54:44;;;;;;;12.13;5.88;;;;;;;;;;4991238;28;20065;-82
2023/04/18 07:57:10;;;;;;;11.10;6.15;;;;;;;;;;4989806;28;20038;-82
2023/04/18 07:59:35;;;;;;;10.25;5.55;;;;;;;;;;4992221;28;20046;-81
2023/04/18 08:02:01;;;;;;;8.82;5.40;;;;;;;;;;4991844;28;20053;-83
2023/04/18 08:04:27;;;;;;;9.40;5.80;;;;;;;;;;4993452;28;20041;-80
2023/04/18 08:06:52;;;;;;;13.05;6.82;;;;;;;;;;4986665;28;20092;-80
2023/04/18 08:09:19;;;;;;;12.07;6.65;;;;;;;;;;4984770;28;20051;-80
2023/04/18 08:11:45;;;;;;;9.57;6.07;;;;;;;;;;4993056;28;20122;-80
2023/04/18 08:14:10;;;;;;;11.02;6.47;;;;;;;;;;4992524;28;20117;-81
2023/04/18 08:16:36;;;;;;;10.70;6.15;;;;;;;;;;4991467;28;20336;-80
2023/04/18 08:19:02;;;;;;;8.85;5.65;;;;;;;;;;4977988;28;20049;-80
2023/04/18 08:21:27;;;;;;;9.43;5.80;;;;;;;;;;4994768;28;20068;-80
2023/04/18 08:23:52;;;;;;;9.85;5.90;;;;;;;;;;4999084;28;20977;-80
2023/04/18 08:26:18;;;;;;;9.02;6.00;;;;;;;;;;5013639;28;20044;-80
2023/04/18 08:28:44;;;;;;;10.30;6.47;;;;;;;;;;5013252;28;20120;-80
2023/04/18 08:31:13;;;;;;;10.15;6.32;;;;;;;;;;5013096;28;20038;-81
2023/04/18 08:33:39;;;;;;;10.90;6.70;;;;;;;;;;4997380;28;20452;-80
2023/04/18 08:36:05;;;;;;;9.63;6.18;;;;;;;;;;5012549;28;20041;-80
2023/04/18 08:38:30;;;;;;;10.88;6.25;;;;;;;;;;5013468;28;20148;-80
2023/04/18 08:40:56;;;;;;;12.80;6.90;;;;;;;;;;4983911;28;20053;-80
2023/04/18 08:43:21;;;;;;;11.60;6.47;;;;;;;;;;5012057;28;20080;-80
2023/04/18 08:45:47;;;;;;;11.30;6.85;;;;;;;;;;4997043;28;20076;-80
2023/04/18 08:48:13;;;;;;;12.07;6.90;;;;;;;;;;5013690;28;20050;-80
2023/04/18 08:50:40;;;;;;;12.25;6.85;;;;;;;;;;5005389;28;20033;-80
2023/04/18 08:53:05;;;;;;;12.50;6.85;;;;;;;;;;4995154;28;20490;-80
2023/04/18 08:55:32;;;;;;;13.02;7.35;;;;;;;;;;4997833;28;20057;-80
2023/04/18 08:57:58;;;;;;;12.38;7.13;;;;;;;;;;4997081;28;20109;-80
2023/04/18 09:00:24;;;;;;;12.93;7.47;;;;;;;;;;4976585;28;20505;-80
2023/04/18 09:02:55;;;;;;;13.55;6.65;;;;;;;;;;4987881;28;20490;-81
2023/04/18 09:05:21;;;;;;;13.32;7.07;;;;;;;;;;4983193;28;20041;-81
2023/04/18 09:07:50;;;;;;;13.23;7.70;;;;;;;;;;4982728;28;20125;-81
2023/04/18 09:10:32;;;;;;;11.05;6.50;;;;;;;;;;4993833;28;20108;-81
2023/04/18 09:12:59;;;;;;;10.98;6.53;;;;;;;;;;5000078;28;20508;-80
2023/04/18 09:15:27;;;;;;;13.23;6.75;;;;;;;;;;4994443;28;20099;-81
2023/04/18 09:17:54;;;;;;;12.75;6.47;;;;;;;;;;4978807;28;20041;-82
2023/04/18 09:20:34;;;;;;;11.13;6.30;;;;;;;;;;4994199;28;20048;-80
2023/04/18 09:23:09;;;;;;;10.98;6.72;;;;;;;;;;5000058;28;20037;-81
2023/04/18 09:25:41;;;;;;;10.63;6.25;;;;;;;;;;5010622;28;20045;-81
2023/04/18 09:28:23;;;;;;;11.88;6.80;;;;;;;;;;5013355;28;20073;-81
2023/04/18 09:30:51;;;;;;;11.88;6.97;;;;;;;;;;5012386;28;20578;-80
2023/04/18 09:33:26;;;;;;;10.65;6.68;;;;;;;;;;5004952;28;20042;-82
2023/04/18 09:35:52;;;;;;;10.95;6.20;;;;;;;;;;5012547;28;20034;-81
2023/04/18 09:38:18;;;;;;;9.98;6.28;;;;;;;;;;5012029;28;20041;-81
2023/04/18 09:40:43;;;;;;;11.63;7.03;;;;;;;;;;4995762;28;20059;-80
2023/04/18 09:43:18;;;;;;;11.13;7.22;;;;;;;;;;4999035;28;20119;-81
2023/04/18 09:45:47;;;;;;;11.75;6.88;;;;;;;;;;5012496;28;20087;-81
2023/04/18 09:48:13;;;;;;;11.70;6.15;;;;;;;;;;4998919;28;20512;-81
2023/04/18 09:50:40;;;;;;;11.30;6.95;;;;;;;;;;5013432;28;20041;-81
2023/04/18 09:53:07;;;;;;;11.90;6.80;;;;;;;;;;4996360;28;20029;-81
2023/04/18 09:55:34;;;;;;;10.17;6.77;;;;;;;;;;4994249;28;20045;-81
2023/04/18 09:58:00;;;;;;;11.95;6.65;;;;;;;;;;4996085;28;21629;-80
2023/04/18 10:00:26;;;;;;;11.75;6.55;;;;;;;;;;4993106;28;20126;-81
2023/04/18 10:03:04;;;;;;;10.63;6.05;;;;;;;;;;5001220;28;20477;-81
2023/04/18 10:05:35;;;;;;;11.30;6.75;;;;;;;;;;5002765;28;20468;-81
2023/04/18 10:08:01;;;;;;;9.90;6.13;;;;;;;;;;4995335;28;20534;-81
2023/04/18 10:10:26;;;;;;;11.27;6.38;;;;;;;;;;4993549;28;20568;-80
2023/04/18 10:12:56;;;;;;;9.73;5.88;;;;;;;;;;4993454;28;20033;-80
2023/04/18 10:15:24;;;;;;;8.95;5.90;;;;;;;;;;5001913;28;20558;-80
2023/04/18 10:18:00;;;;;;;11.02;6.22;;;;;;;;;;4994113;28;20029;-80
2023/04/18 10:20:27;;;;;;;9.32;5.82;;;;;;;;;;4993560;28;20497;-80
2023/04/18 10:22:54;;;;;;;11.02;5.85;;;;;;;;;;5003829;28;20029;-80
2023/04/18 10:25:38;;;;;;;9.43;6.43;;;;;;;;;;5011050;28;20077;-80
2023/04/18 10:28:07;;;;;;;10.82;5.90;;;;;;;;;;5011527;28;20401;-80
2023/04/18 10:30:42;;;;;;;12.02;6.25;;;;;;;;;;5002299;28;20983;-80
2023/04/18 10:33:37;;;;;;;10.10;5.78;;;;;;;;;;5002923;28;20080;-80
2023/04/18 10:36:08;;;;;;;10.43;6.40;;;;;;;;;;4993103;28;20033;-80
2023/04/18 10:38:44;;;;;;;10.48;6.38;;;;;;;;;;5003411;28;20034;-80
2023/04/18 10:41:22;;;;;;;10.05;6.57;;;;;;;;;;4997643;28;20034;-80
2023/04/18 10:44:06;;;;;;;11.43;6.47;;;;;;;;;;4995859;28;20037;-81
2023/04/18 10:46:36;;;;;;;12.02;7.15;;;;;;;;;;5012036;28;20038;-80
2023/04/18 10:49:21;;;;;;;12.13;6.28;;;;;;;;;;4997860;28;20378;-81
2023/04/18 10:51:51;;;;;;;11.85;6.05;;;;;;;;;;5012918;28;20042;-81
2023/04/18 10:54:27;;;;;;;12.65;6.63;;;;;;;;;;5012298;28;20179;-81
2023/04/18 10:56:56;;;;;;;9.98;6.45;;;;;;;;;;5009799;28;20037;-83
2023/04/18 10:59:25;;;;;;;9.48;6.05;;;;;;;;;;4995253;28;20046;-83
2023/04/18 11:01:58;;;;;;;12.20;6.38;;;;;;;;;;5010760;28;20087;-83
2023/04/18 11:04:24;;;;;;;10.38;5.78;;;;;;;;;;4993425;28;20493;-82
2023/04/18 11:06:56;;;;;;;10.50;6.13;;;;;;;;;;4993582;28;20032;-83
2023/04/18 11:09:21;;;;;;;11.23;6.05;;;;;;;;;;4994148;28;20113;-83
2023/04/18 11:12:02;;;;;;;11.88;6.82;;;;;;;;;;4992579;28;20945;-83
2023/04/18 11:14:40;;;;;;;10.10;6.90;;;;;;;;;;4993327;28;20103;-83
2023/04/18 11:17:20;;;;;;;9.40;5.65;;;;;;;;;;5009884;28;20034;-82
2023/04/18 11:19:46;;;;;;;9.85;6.30;;;;;;;;;;4995916;28;20358;-83
2023/04/18 11:22:12;;;;;;;10.13;6.38;;;;;;;;;;4992247;28;20037;-82
2023/04/18 11:24:38;;;;;;;9.05;5.78;;;;;;;;;;4993436;28;20402;-84
2023/04/18 11:27:03;;;;;;;9.27;5.53;;;;;;;;;;5009703;28;20030;-86
2023/04/18 11:29:29;;;;;;;9.70;6.10;;;;;;;;;;5010361;28;20485;-84
2023/04/18 11:31:54;;;;;;;10.30;5.90;;;;;;;;;;5002796;28;20544;-84
2023/04/18 11:34:20;;;;;;;10.75;5.70;;;;;;;;;;4979590;28;20038;-84
2023/04/18 11:36:49;;;;;;;9.32;5.05;;;;;;;;;;4990630;28;20061;-84
2023/04/18 11:39:15;;;;;;;11.85;6.22;;;;;;;;;;4987103;28;20057;-87
2023/04/18 11:41:43;;;;;;;8.73;5.72;;;;;;;;;;4992209;28;20487;-86
2023/04/18 11:44:08;;;;;;;8.68;5.75;;;;;;;;;;4982711;28;20732;-85
2023/04/18 11:46:41;;;;;;;9.93;5.80;;;;;;;;;;4976605;28;20092;-86
2023/04/18 11:49:06;;;;;;;12.80;5.93;;;;;;;;;;4982198;28;20043;-86
2023/04/18 11:51:38;;;;;;;8.60;5.38;;;;;;;;;;4987012;28;20049;-85
2023/04/18 11:54:04;;;;;;;11.70;5.88;;;;;;;;;;4996278;28;20076;-85
2023/04/18 11:56:30;;;;;;;11.57;5.78;;;;;;;;;;4992516;28;20850;-85
2023/04/18 11:58:55;;;;;;;9.88;5.63;;;;;;;;;;4994863;28;20042;-85
2023/04/18 12:01:22;;;;;;;8.88;5.30;;;;;;;;;;4973347;28;20038;-85
2023/04/18 12:04:06;;;;;;;12.20;5.53;;;;;;;;;;4993408;28;20038;-86
2023/04/18 12:06:52;;;;;;;10.73;5.75;;;;;;;;;;4996059;28;20052;-85
2023/04/18 12:09:19;;;;;;;10.93;5.70;;;;;;;;;;5009795;28;20051;-85
2023/04/18 12:11:58;;;;;;;9.77;5.72;;;;;;;;;;4988871;28;20039;-85
2023/04/18 12:14:24;;;;;;;9.02;6.05;;;;;;;;;;4979537;28;20046;-84
2023/04/18 12:16:50;;;;;;;10.90;5.78;;;;;;;;;;4987730;28;20513;-85
2023/04/18 12:19:16;;;;;;;10.23;5.60;;;;;;;;;;4993195;28;20046;-80
2023/04/18 12:21:55;;;;;;;10.82;5.95;;;;;;;;;;4986435;28;20034;-80
2023/04/18 12:24:22;;;;;;;11.05;5.53;;;;;;;;;;5005404;28;20041;-80
2023/04/18 12:26:48;;;;;;;9.47;5.73;;;;;;;;;;4998803;28;20060;-80
2023/04/18 12:29:13;;;;;;;8.90;5.35;;;;;;;;;;5011516;28;20321;-80
2023/04/18 12:31:39;;;;;;;9.32;5.38;;;;;;;;;;4983302;28;20088;-79
2023/04/18 12:34:05;;;;;;;9.23;5.15;;;;;;;;;;4998000;28;20040;-79
2023/04/18 12:36:31;;;;;;;9.90;5.88;;;;;;;;;;4995844;28;20038;-79
2023/04/18 12:38:56;;;;;;;8.45;5.30;;;;;;;;;;4994630;28;20095;-80
2023/04/18 12:41:21;;;;;;;10.93;5.90;;;;;;;;;;5013357;28;20038;-80
2023/04/18 12:43:47;;;;;;;10.52;5.93;;;;;;;;;;4998523;28;20140;-79
2023/04/18 12:46:12;;;;;;;12.15;7.30;;;;;;;;;;4998790;28;20540;-80
2023/04/18 12:48:38;;;;;;;9.90;6.13;;;;;;;;;;5012442;28;20042;-84
2023/04/18 12:51:03;;;;;;;10.40;6.40;;;;;;;;;;5001853;28;20127;-79
2023/04/18 12:53:28;;;;;;;10.57;6.13;;;;;;;;;;5013598;28;20041;-81
2023/04/18 12:55:54;;;;;;;11.13;6.35;;;;;;;;;;5013679;28;20401;-79
2023/04/18 12:58:19;;;;;;;12.05;7.05;;;;;;;;;;5000620;28;20038;-80
2023/04/18 13:00:45;;;;;;;12.15;7.20;;;;;;;;;;5015046;28;20069;-79
2023/04/18 13:03:10;;;;;;;12.98;7.43;;;;;;;;;;4998054;28;20385;-80
2023/04/18 13:05:36;;;;;;;11.20;7.00;;;;;;;;;;4997708;28;20098;-80
2023/04/18 13:08:01;;;;;;;11.10;7.15;;;;;;;;;;4982272;28;20033;-81
2023/04/18 13:10:27;;;;;;;11.45;6.80;;;;;;;;;;5010519;28;20247;-80
2023/04/18 13:12:52;;;;;;;13.75;7.38;;;;;;;;;;4997883;28;20053;-81
2023/04/18 13:15:21;;;;;;;11.73;6.78;;;;;;;;;;5011878;28;20391;-79
2023/04/18 13:17:47;;;;;;;14.20;7.90;;;;;;;;;;5013507;28;20393;-79
2023/04/18 13:20:33;;;;;;;10.45;6.70;;;;;;;;;;4995518;28;20034;-80
2023/04/18 13:22:58;;;;;;;13.00;7.50;;;;;;;;;;4943763;29;20499;-80
2023/04/18 13:25:24;;;;;;;13.50;8.00;;;;;;;;;;4927077;29;20143;-80
2023/04/18 13:27:50;;;;;;;11.85;7.60;;;;;;;;;;4912133;29;20039;-80
2023/04/18 13:30:16;;;;;;;12.52;7.35;;;;;;;;;;4927718;29;20094;-80
2023/04/18 13:32:42;;;;;;;10.60;6.80;;;;;;;;;;4927215;29;20540;-80
2023/04/18 13:35:09;;;;;;;11.82;7.90;;;;;;;;;;4943761;29;20530;-79
2023/04/18 13:37:35;;;;;;;12.90;8.23;;;;;;;;;;4943107;29;20531;-80
2023/04/18 13:40:02;;;;;;;13.30;8.25;;;;;;;;;;4943233;29;20039;-80
2023/04/18 13:42:28;;;;;;;12.88;8.15;;;;;;;;;;4942972;29;20045;-80
2023/04/18 13:44:53;;;;;;;11.93;7.53;;;;;;;;;;4943854;29;20047;-79
2023/04/18 13:47:18;;;;;;;11.98;7.47;;;;;;;;;;4943181;29;20051;-81
2023/04/18 13:49:44;;;;;;;12.43;8.05;;;;;;;;;;4943372;29;20525;-81
2023/04/18 13:52:09;;;;;;;14.57;7.97;;;;;;;;;;4943478;29;20459;-79
2023/04/18 13:54:36;;;;;;;10.90;7.30;;;;;;;;;;4943550;29;20047;-79
2023/04/18 13:57:02;;;;;;;12.07;7.35;;;;;;;;;;4942748;29;20503;-80
2023/04/18 13:59:29;;;;;;;11.27;7.22;;;;;;;;;;4956456;28;20045;-81
2023/04/18 14:01:55;;;;;;;12.63;7.63;;;;;;;;;;4992822;28;20165;-81
2023/04/18 14:04:21;;;;;;;18.40;10.77;;;;;;;;;;4977226;28;20045;-79
2023/04/18 14:06:47;;;;;;;16.08;8.60;;;;;;;;;;5006262;28;20038;-79
2023/04/18 14:09:12;;;;;;;11.10;7.30;;;;;;;;;;5011583;28;20038;-80
2023/04/18 14:11:37;;;;;;;11.15;7.05;;;;;;;;;;4997183;28;20042;-82
2023/04/18 14:14:03;;;;;;;10.40;6.68;;;;;;;;;;4998597;28;20037;-83
2023/04/18 14:16:32;;;;;;;9.32;6.72;;;;;;;;;;4991549;28;20493;-81
2023/04/18 14:18:58;;;;;;;9.82;6.68;;;;;;;;;;4994381;28;20033;-81
2023/04/18 14:21:25;;;;;;;10.45;6.40;;;;;;;;;;5002590;28;20099;-81
2023/04/18 14:23:51;;;;;;;10.27;6.57;;;;;;;;;;4980342;28;20034;-81
2023/04/18 14:26:17;;;;;;;10.07;6.55;;;;;;;;;;4992509;28;20044;-81
2023/04/18 14:28:43;;;;;;;11.25;6.28;;;;;;;;;;4989311;28;20036;-82